Time;durP1;ratioP1;P1;durP2;ratioP2;P2;SDS_P1;SDS_P2;PMS_P1;PMS_P2;Temp;Humidity;BMP_temperature;BMP_pressure;BME280_temperature;BME280_humidity;BME280_pressure;Samples;Min_cycle;Max_cycle;Signal;HPM_P1;HPM_P2
2022/03/11 00:01:29;;;;;;;19.40;9.50;;;;;;;;;;4992938;28;20068;-65
2022/03/11 00:03:57;;;;;;;18.65;9.50;;;;;;;;;;4993569;28;20062;-64
2022/03/11 00:06:24;;;;;;;17.40;9.57;;;;;;;;;;4993221;28;20058;-65
2022/03/11 00:08:51;;;;;;;16.45;8.50;;;;;;;;;;4993394;28;20081;-65
2022/03/11 00:11:18;;;;;;;17.10;9.20;;;;;;;;;;4993235;28;20054;-65
2022/03/11 00:13:45;;;;;;;15.75;8.30;;;;;;;;;;4993365;28;20092;-66
2022/03/11 00:16:13;;;;;;;17.52;8.13;;;;;;;;;;4993293;28;20050;-66
2022/03/11 00:18:41;;;;;;;15.23;7.80;;;;;;;;;;4993446;28;20129;-66
2022/03/11 00:21:12;;;;;;;13.02;7.25;;;;;;;;;;4993292;28;20126;-65
2022/03/11 00:23:39;;;;;;;16.25;8.18;;;;;;;;;;4993138;28;20046;-65
2022/03/11 00:26:06;;;;;;;15.02;7.60;;;;;;;;;;4993161;28;20096;-63
2022/03/11 00:28:34;;;;;;;15.93;7.88;;;;;;;;;;4993282;28;20053;-65
2022/03/11 00:31:04;;;;;;;15.38;7.05;;;;;;;;;;4992809;28;20064;-65
2022/03/11 00:33:31;;;;;;;14.50;7.15;;;;;;;;;;4993517;28;20108;-65
2022/03/11 00:36:00;;;;;;;16.33;7.60;;;;;;;;;;4985047;28;20054;-64
2022/03/11 00:38:27;;;;;;;12.55;6.75;;;;;;;;;;4973687;28;20082;-65
2022/03/11 00:40:56;;;;;;;12.50;6.65;;;;;;;;;;4974191;28;20150;-64
2022/03/11 00:43:23;;;;;;;13.85;7.20;;;;;;;;;;4973713;28;20171;-64
2022/03/11 00:45:50;;;;;;;12.90;6.00;;;;;;;;;;4973892;28;20125;-64
2022/03/11 00:48:17;;;;;;;12.98;6.75;;;;;;;;;;4973854;28;20511;-64
2022/03/11 00:50:44;;;;;;;14.88;6.95;;;;;;;;;;4973895;28;20068;-65
2022/03/11 00:53:13;;;;;;;13.18;6.28;;;;;;;;;;4974101;28;20046;-65
2022/03/11 00:55:40;;;;;;;12.82;5.97;;;;;;;;;;4973718;28;20057;-65
2022/03/11 00:58:07;;;;;;;11.52;5.65;;;;;;;;;;4973522;28;20082;-65
2022/03/11 01:00:34;;;;;;;9.48;5.70;;;;;;;;;;4973165;28;20049;-63
2022/03/11 01:03:01;;;;;;;11.82;5.97;;;;;;;;;;4973425;28;20126;-64
2022/03/11 01:05:29;;;;;;;11.60;5.43;;;;;;;;;;4973412;28;20059;-65
2022/03/11 01:07:56;;;;;;;11.15;5.80;;;;;;;;;;4973286;28;20051;-65
2022/03/11 01:10:25;;;;;;;11.05;5.53;;;;;;;;;;4973262;28;20480;-65
2022/03/11 01:12:52;;;;;;;11.48;5.38;;;;;;;;;;4973638;28;20051;-65
2022/03/11 01:15:19;;;;;;;9.70;4.97;;;;;;;;;;4977039;28;20129;-65
2022/03/11 01:17:46;;;;;;;12.48;5.28;;;;;;;;;;4977130;28;20498;-65
2022/03/11 01:20:13;;;;;;;11.13;5.10;;;;;;;;;;4976985;28;20055;-64
2022/03/11 01:22:41;;;;;;;11.43;4.95;;;;;;;;;;4977031;28;20047;-65
2022/03/11 01:25:09;;;;;;;11.55;5.38;;;;;;;;;;4976766;28;20043;-65
2022/03/11 01:27:38;;;;;;;12.43;5.53;;;;;;;;;;4977062;28;20050;-65
2022/03/11 01:30:09;;;;;;;12.05;5.35;;;;;;;;;;4976923;28;20161;-65
2022/03/11 01:32:36;;;;;;;11.73;5.60;;;;;;;;;;4976924;28;20051;-65
2022/03/11 01:35:03;;;;;;;8.65;4.60;;;;;;;;;;4976787;28;20082;-65
2022/03/11 01:37:30;;;;;;;11.20;4.97;;;;;;;;;;4976758;28;20417;-65
2022/03/11 01:39:57;;;;;;;11.25;5.28;;;;;;;;;;4976398;28;20423;-64
2022/03/11 01:42:24;;;;;;;10.65;4.97;;;;;;;;;;4976501;28;20053;-65
2022/03/11 01:44:53;;;;;;;10.32;4.45;;;;;;;;;;4976558;28;20057;-64
2022/03/11 01:47:20;;;;;;;7.43;4.45;;;;;;;;;;4976368;28;20113;-66
2022/03/11 01:49:47;;;;;;;10.73;4.82;;;;;;;;;;4976582;28;20086;-65
2022/03/11 01:52:14;;;;;;;11.15;5.00;;;;;;;;;;4976326;28;20515;-64
2022/03/11 01:54:43;;;;;;;11.45;5.07;;;;;;;;;;4976585;28;20054;-65
2022/03/11 01:57:10;;;;;;;10.15;5.00;;;;;;;;;;4976226;28;20475;-64
2022/03/11 01:59:38;;;;;;;9.85;5.45;;;;;;;;;;4976208;28;20050;-64
2022/03/11 02:02:07;;;;;;;13.23;4.93;;;;;;;;;;4976178;28;20129;-66
2022/03/11 02:04:34;;;;;;;8.75;4.45;;;;;;;;;;4976271;28;20099;-65
2022/03/11 02:07:01;;;;;;;11.55;5.18;;;;;;;;;;4976002;28;20077;-64
2022/03/11 02:09:28;;;;;;;9.88;5.10;;;;;;;;;;4976026;28;20055;-65
2022/03/11 02:11:55;;;;;;;13.73;5.68;;;;;;;;;;4976106;28;20250;-66
2022/03/11 02:14:22;;;;;;;10.55;5.10;;;;;;;;;;4976078;28;20516;-63
2022/03/11 02:16:49;;;;;;;11.27;5.05;;;;;;;;;;4975973;28;20053;-65
2022/03/11 02:19:18;;;;;;;9.15;4.97;;;;;;;;;;4975856;28;20583;-63
2022/03/11 02:21:47;;;;;;;10.65;4.90;;;;;;;;;;4975788;28;20126;-64
2022/03/11 02:24:16;;;;;;;11.55;5.63;;;;;;;;;;4975134;28;20082;-64
2022/03/11 02:26:43;;;;;;;9.55;4.70;;;;;;;;;;4974868;28;20050;-65
2022/03/11 02:29:10;;;;;;;10.00;5.15;;;;;;;;;;4975987;28;20092;-65
2022/03/11 02:31:37;;;;;;;9.38;4.70;;;;;;;;;;4975693;28;20055;-66
2022/03/11 02:34:05;;;;;;;9.85;4.53;;;;;;;;;;4975470;28;20047;-65
2022/03/11 02:36:32;;;;;;;11.05;5.30;;;;;;;;;;4975869;28;20542;-65
2022/03/11 02:39:00;;;;;;;10.95;5.15;;;;;;;;;;4975170;28;20559;-65
2022/03/11 02:41:28;;;;;;;10.68;5.43;;;;;;;;;;4975498;28;20051;-65
2022/03/11 02:43:56;;;;;;;14.75;4.82;;;;;;;;;;4990898;23;20428;-60
2022/03/11 02:46:23;;;;;;;11.32;5.18;;;;;;;;;;4994708;28;20089;-66
2022/03/11 02:48:50;;;;;;;8.63;4.68;;;;;;;;;;4995773;28;20475;-60
2022/03/11 02:51:17;;;;;;;10.88;5.18;;;;;;;;;;4995766;28;20137;-58
2022/03/11 02:53:45;;;;;;;10.18;5.00;;;;;;;;;;4995411;28;20053;-60
2022/03/11 02:56:12;;;;;;;13.38;4.80;;;;;;;;;;4987215;28;20055;-60
2022/03/11 02:58:41;;;;;;;11.02;5.75;;;;;;;;;;4975968;28;20047;-60
2022/03/11 03:01:09;;;;;;;11.68;5.28;;;;;;;;;;4975977;28;20082;-60
2022/03/11 03:03:36;;;;;;;10.80;5.40;;;;;;;;;;4975573;28;20109;-60
2022/03/11 03:06:04;;;;;;;11.00;6.18;;;;;;;;;;4975630;28;20058;-61
2022/03/11 03:08:32;;;;;;;10.40;6.18;;;;;;;;;;4975884;28;20137;-60
2022/03/11 03:10:59;;;;;;;11.35;6.07;;;;;;;;;;4976221;28;20106;-61
2022/03/11 03:13:27;;;;;;;9.57;5.75;;;;;;;;;;4975842;28;20359;-60
2022/03/11 03:15:55;;;;;;;10.93;5.72;;;;;;;;;;4975485;28;20082;-61
2022/03/11 03:18:23;;;;;;;11.57;6.22;;;;;;;;;;4975841;28;20058;-61
2022/03/11 03:20:50;;;;;;;11.90;5.82;;;;;;;;;;4975744;28;20070;-61
2022/03/11 03:23:18;;;;;;;9.50;5.03;;;;;;;;;;4975993;28;20101;-61
2022/03/11 03:25:45;;;;;;;10.55;6.03;;;;;;;;;;4975597;28;20047;-61
2022/03/11 03:28:12;;;;;;;11.38;5.72;;;;;;;;;;4975636;28;20070;-60
2022/03/11 03:30:39;;;;;;;13.32;6.70;;;;;;;;;;4975910;28;20054;-63
2022/03/11 03:33:08;;;;;;;11.38;6.95;;;;;;;;;;4975520;28;20057;-61
2022/03/11 03:35:35;;;;;;;10.00;5.50;;;;;;;;;;4974938;28;20133;-61
2022/03/11 03:38:02;;;;;;;13.52;5.95;;;;;;;;;;4975478;28;20050;-59
2022/03/11 03:40:30;;;;;;;16.15;6.07;;;;;;;;;;4975765;28;20058;-61
2022/03/11 03:42:57;;;;;;;15.02;6.72;;;;;;;;;;4975732;28;20093;-61
2022/03/11 03:45:24;;;;;;;12.23;5.80;;;;;;;;;;4975152;28;20050;-59
2022/03/11 03:47:51;;;;;;;11.93;6.10;;;;;;;;;;4975241;28;20097;-61
2022/03/11 03:50:20;;;;;;;13.55;6.40;;;;;;;;;;4975407;28;20596;-61
2022/03/11 03:52:47;;;;;;;15.45;6.35;;;;;;;;;;4974905;28;20523;-60
2022/03/11 03:55:15;;;;;;;12.68;6.22;;;;;;;;;;4975035;28;20055;-61
2022/03/11 03:57:42;;;;;;;12.05;5.80;;;;;;;;;;4975383;28;20109;-61
2022/03/11 04:00:11;;;;;;;13.50;5.88;;;;;;;;;;4975345;28;20086;-62
2022/03/11 04:02:45;;;;;;;13.60;6.53;;;;;;;;;;4975305;28;20047;-61
2022/03/11 04:05:13;;;;;;;14.85;6.90;;;;;;;;;;4975562;28;20055;-62
2022/03/11 04:07:42;;;;;;;13.25;6.45;;;;;;;;;;4975324;28;20110;-61
2022/03/11 04:10:10;;;;;;;14.73;7.15;;;;;;;;;;4975078;28;20502;-61
2022/03/11 04:12:38;;;;;;;13.85;6.82;;;;;;;;;;4975301;28;20515;-62
2022/03/11 04:15:06;;;;;;;12.48;6.45;;;;;;;;;;4975097;28;20093;-62
2022/03/11 04:17:33;;;;;;;11.60;6.38;;;;;;;;;;4975145;28;20047;-61
2022/03/11 04:20:01;;;;;;;12.73;6.15;;;;;;;;;;4974882;28;20492;-60
2022/03/11 04:22:28;;;;;;;20.60;7.40;;;;;;;;;;4975089;28;20054;-61
2022/03/11 04:24:57;;;;;;;14.02;6.93;;;;;;;;;;4974769;28;20054;-61
2022/03/11 04:27:24;;;;;;;13.15;7.10;;;;;;;;;;4975013;28;20145;-62
2022/03/11 04:29:51;;;;;;;13.73;6.07;;;;;;;;;;4974839;28;20484;-61
2022/03/11 04:32:18;;;;;;;13.23;6.80;;;;;;;;;;4974808;28;20047;-61
2022/03/11 04:34:45;;;;;;;13.48;6.45;;;;;;;;;;4974053;28;20055;-61
2022/03/11 04:37:13;;;;;;;13.45;6.50;;;;;;;;;;4974602;28;20058;-61
2022/03/11 04:39:40;;;;;;;17.65;7.57;;;;;;;;;;4974535;28;20097;-61
2022/03/11 04:42:10;;;;;;;14.23;7.28;;;;;;;;;;4974232;28;20522;-61
2022/03/11 04:44:37;;;;;;;13.70;6.77;;;;;;;;;;4973671;28;20057;-61
2022/03/11 04:47:05;;;;;;;14.07;6.93;;;;;;;;;;4973769;28;20055;-61
2022/03/11 04:49:32;;;;;;;16.92;7.93;;;;;;;;;;4973515;28;20404;-60
2022/03/11 04:51:59;;;;;;;14.10;6.40;;;;;;;;;;4974350;28;20138;-61
2022/03/11 04:54:26;;;;;;;14.57;7.60;;;;;;;;;;4974547;28;20129;-61
2022/03/11 04:56:54;;;;;;;15.57;7.40;;;;;;;;;;4974083;28;20134;-61
2022/03/11 04:59:22;;;;;;;12.75;6.35;;;;;;;;;;4974269;28;20492;-61
2022/03/11 05:01:49;;;;;;;14.10;7.72;;;;;;;;;;4974448;28;20496;-62
2022/03/11 05:04:16;;;;;;;15.98;7.10;;;;;;;;;;4974202;28;20050;-60
2022/03/11 05:06:43;;;;;;;11.88;6.97;;;;;;;;;;4973909;28;20084;-59
2022/03/11 05:09:10;;;;;;;15.82;7.32;;;;;;;;;;4974266;28;20677;-58
2022/03/11 05:11:38;;;;;;;16.73;7.50;;;;;;;;;;4974087;28;20186;-60
2022/03/11 05:14:05;;;;;;;15.98;7.35;;;;;;;;;;4973865;28;20062;-59
2022/03/11 05:16:34;;;;;;;13.65;7.78;;;;;;;;;;4973954;28;20138;-63
2022/03/11 05:19:01;;;;;;;15.63;7.75;;;;;;;;;;4974306;28;20057;-58
2022/03/11 05:21:28;;;;;;;15.07;6.90;;;;;;;;;;4974056;28;20051;-59
2022/03/11 05:23:56;;;;;;;13.15;6.95;;;;;;;;;;4974392;28;20086;-59
2022/03/11 05:26:25;;;;;;;17.08;7.45;;;;;;;;;;4973941;28;20059;-59
2022/03/11 05:28:55;;;;;;;15.75;8.07;;;;;;;;;;4973612;28;20073;-60
2022/03/11 05:31:22;;;;;;;16.60;6.40;;;;;;;;;;4973839;28;20061;-60
2022/03/11 05:33:51;;;;;;;15.95;7.43;;;;;;;;;;4974436;28;20492;-61
2022/03/11 05:36:18;;;;;;;13.82;6.97;;;;;;;;;;4973573;28;20043;-61
2022/03/11 05:38:45;;;;;;;13.90;6.75;;;;;;;;;;4974056;28;20057;-61
2022/03/11 05:41:12;;;;;;;13.63;7.18;;;;;;;;;;4973489;28;20069;-61
2022/03/11 05:43:40;;;;;;;18.70;7.45;;;;;;;;;;4972892;28;20085;-60
2022/03/11 05:46:07;;;;;;;14.18;6.82;;;;;;;;;;4973989;28;20090;-60
2022/03/11 05:48:34;;;;;;;12.45;6.68;;;;;;;;;;4973825;28;20051;-60
2022/03/11 05:51:02;;;;;;;15.27;7.47;;;;;;;;;;4974175;28;20061;-60
2022/03/11 05:53:29;;;;;;;17.88;8.52;;;;;;;;;;4973591;28;20134;-60
2022/03/11 05:55:56;;;;;;;17.48;7.55;;;;;;;;;;4973628;28;20411;-60
2022/03/11 05:58:23;;;;;;;16.25;8.15;;;;;;;;;;4974214;28;20344;-62
2022/03/11 06:00:50;;;;;;;14.13;7.60;;;;;;;;;;4976941;28;20134;-60
2022/03/11 06:03:18;;;;;;;14.50;7.50;;;;;;;;;;4977396;28;20133;-61
2022/03/11 06:05:45;;;;;;;14.65;7.57;;;;;;;;;;4976584;28;20050;-60
2022/03/11 06:08:13;;;;;;;15.80;7.65;;;;;;;;;;4976709;28;20047;-59
2022/03/11 06:10:41;;;;;;;14.43;7.93;;;;;;;;;;4976591;28;20051;-62
2022/03/11 06:13:08;;;;;;;14.63;7.85;;;;;;;;;;4976490;28;20055;-62
2022/03/11 06:15:35;;;;;;;13.80;7.57;;;;;;;;;;4976369;28;20105;-61
2022/03/11 06:18:02;;;;;;;13.95;7.07;;;;;;;;;;4976403;28;20137;-61
2022/03/11 06:20:32;;;;;;;16.95;6.90;;;;;;;;;;4976133;28;20047;-61
2022/03/11 06:23:00;;;;;;;16.75;7.57;;;;;;;;;;4975998;28;20050;-60
2022/03/11 06:25:29;;;;;;;12.68;6.68;;;;;;;;;;4975853;28;20062;-61
2022/03/11 06:27:56;;;;;;;12.20;6.60;;;;;;;;;;4976185;28;20093;-61
2022/03/11 06:30:23;;;;;;;14.88;7.18;;;;;;;;;;4976120;28;20101;-62
2022/03/11 06:32:51;;;;;;;13.43;7.05;;;;;;;;;;4975893;28;20057;-61
2022/03/11 06:35:19;;;;;;;16.25;7.43;;;;;;;;;;4975964;28;20492;-60
2022/03/11 06:37:48;;;;;;;14.60;7.43;;;;;;;;;;4975460;28;20046;-60
2022/03/11 06:40:15;;;;;;;16.17;8.15;;;;;;;;;;4975822;28;20133;-61
2022/03/11 06:42:45;;;;;;;15.32;7.45;;;;;;;;;;4975629;28;20570;-59
2022/03/11 06:45:14;;;;;;;19.23;7.60;;;;;;;;;;4975613;28;20061;-60
2022/03/11 06:47:42;;;;;;;16.88;8.63;;;;;;;;;;4976047;28;20070;-59
2022/03/11 06:50:10;;;;;;;13.13;7.30;;;;;;;;;;4975774;28;20059;-61
2022/03/11 06:52:38;;;;;;;15.55;7.72;;;;;;;;;;4976254;28;20046;-61
2022/03/11 06:55:06;;;;;;;14.48;8.00;;;;;;;;;;4975956;28;20065;-60
2022/03/11 06:57:34;;;;;;;17.02;8.52;;;;;;;;;;4976080;28;20063;-60
2022/03/11 07:00:03;;;;;;;15.73;8.15;;;;;;;;;;4975717;28;20054;-61
2022/03/11 07:02:31;;;;;;;19.88;8.82;;;;;;;;;;4976177;28;20385;-61
2022/03/11 07:04:58;;;;;;;17.50;8.50;;;;;;;;;;4975320;28;20054;-60
2022/03/11 07:07:28;;;;;;;16.30;8.30;;;;;;;;;;4976050;28;20142;-61
2022/03/11 07:09:56;;;;;;;17.53;8.40;;;;;;;;;;4975813;28;20094;-61
2022/03/11 07:12:22;;;;;;;15.32;7.78;;;;;;;;;;4975002;28;20287;-61
2022/03/11 07:14:49;;;;;;;17.75;8.40;;;;;;;;;;4974986;28;20055;-61
2022/03/11 07:17:18;;;;;;;19.48;8.60;;;;;;;;;;4975277;28;20100;-61
2022/03/11 07:19:45;;;;;;;18.52;9.30;;;;;;;;;;4975645;28;20050;-60
2022/03/11 07:22:12;;;;;;;17.10;9.50;;;;;;;;;;4975404;28;20062;-61
2022/03/11 07:24:41;;;;;;;20.35;8.80;;;;;;;;;;4975186;28;20061;-60
2022/03/11 07:27:08;;;;;;;18.25;8.25;;;;;;;;;;4975561;28;20050;-60
2022/03/11 07:29:35;;;;;;;18.05;8.27;;;;;;;;;;4975580;28;20439;-60
2022/03/11 07:32:02;;;;;;;16.00;7.95;;;;;;;;;;4975423;28;20125;-60
2022/03/11 07:34:31;;;;;;;18.33;9.82;;;;;;;;;;4975454;28;20046;-61
2022/03/11 07:36:58;;;;;;;18.90;8.80;;;;;;;;;;4975628;28;20065;-61
2022/03/11 07:39:25;;;;;;;17.90;9.18;;;;;;;;;;4975626;28;20055;-61
2022/03/11 07:41:52;;;;;;;16.23;9.30;;;;;;;;;;4975217;28;20078;-61
2022/03/11 07:44:20;;;;;;;17.17;9.45;;;;;;;;;;4975341;28;20050;-62
2022/03/11 07:46:47;;;;;;;18.23;8.82;;;;;;;;;;4975499;28;20067;-61
2022/03/11 07:49:15;;;;;;;13.20;7.93;;;;;;;;;;4975389;28;20149;-60
2022/03/11 07:51:43;;;;;;;20.23;9.02;;;;;;;;;;4975931;28;20089;-60
2022/03/11 07:54:12;;;;;;;17.52;8.85;;;;;;;;;;4975992;28;20046;-60
2022/03/11 07:56:40;;;;;;;22.48;9.30;;;;;;;;;;4974810;28;20058;-59
2022/03/11 07:59:07;;;;;;;18.73;10.13;;;;;;;;;;4975091;28;20050;-61
2022/03/11 08:01:34;;;;;;;19.48;10.32;;;;;;;;;;4974303;28;20059;-60
2022/03/11 08:04:01;;;;;;;20.00;10.10;;;;;;;;;;4975028;28;20130;-61
2022/03/11 08:06:28;;;;;;;16.65;9.63;;;;;;;;;;4974816;28;20448;-60
2022/03/11 08:08:57;;;;;;;20.23;9.13;;;;;;;;;;4974223;28;20051;-61
2022/03/11 08:11:24;;;;;;;17.38;9.30;;;;;;;;;;4974022;28;20101;-60
2022/03/11 08:13:51;;;;;;;15.98;8.48;;;;;;;;;;4976991;28;20046;-61
2022/03/11 08:16:18;;;;;;;23.17;12.02;;;;;;;;;;4979994;28;20416;-61
2022/03/11 08:18:45;;;;;;;19.48;9.73;;;;;;;;;;4972658;28;20499;-60
2022/03/11 08:21:16;;;;;;;20.30;9.57;;;;;;;;;;4972147;28;20047;-61
2022/03/11 08:23:45;;;;;;;19.25;9.98;;;;;;;;;;4972128;28;20062;-60
2022/03/11 08:26:13;;;;;;;17.92;9.60;;;;;;;;;;4972021;28;20051;-61
2022/03/11 08:28:41;;;;;;;22.67;10.35;;;;;;;;;;4972237;28;20050;-60
2022/03/11 08:31:08;;;;;;;17.45;8.32;;;;;;;;;;4971915;28;20538;-60
2022/03/11 08:33:39;;;;;;;17.50;9.13;;;;;;;;;;4971915;28;20051;-60
2022/03/11 08:36:07;;;;;;;;;;;;;;;;;;4971699;28;20417;-61
2022/03/11 08:38:34;;;;;;;18.95;8.90;;;;;;;;;;4970884;28;19922;-60
2022/03/11 08:41:02;;;;;;;19.10;9.13;;;;;;;;;;4970768;28;20050;-60
2022/03/11 08:43:31;;;;;;;18.92;9.68;;;;;;;;;;4971904;28;20086;-59
2022/03/11 08:45:58;;;;;;;18.85;9.55;;;;;;;;;;4994558;23;20134;-65
2022/03/11 08:48:25;;;;;;;19.63;9.63;;;;;;;;;;4990783;28;20469;-64
2022/03/11 08:50:52;;;;;;;17.95;9.98;;;;;;;;;;4990849;28;20089;-65
2022/03/11 08:53:20;;;;;;;16.13;9.20;;;;;;;;;;4990768;28;20050;-64
2022/03/11 08:55:47;;;;;;;13.18;8.70;;;;;;;;;;4991171;28;20388;-65
2022/03/11 08:58:14;;;;;;;16.73;8.68;;;;;;;;;;4990550;28;20049;-65
2022/03/11 09:00:43;;;;;;;17.35;9.40;;;;;;;;;;4991092;28;20081;-65
2022/03/11 09:03:10;;;;;;;18.40;9.13;;;;;;;;;;4990788;28;20093;-64
2022/03/11 09:05:37;;;;;;;17.77;9.57;;;;;;;;;;4990775;28;20144;-65
2022/03/11 09:08:07;;;;;;;16.75;8.95;;;;;;;;;;4991262;28;20054;-65
2022/03/11 09:10:34;;;;;;;20.13;9.75;;;;;;;;;;4991217;28;20043;-63
2022/03/11 09:13:01;;;;;;;26.23;12.95;;;;;;;;;;4990775;28;20065;-64
2022/03/11 09:15:28;;;;;;;18.52;10.60;;;;;;;;;;4990963;28;20081;-64
2022/03/11 09:17:57;;;;;;;19.30;8.93;;;;;;;;;;4990564;28;20513;-65
2022/03/11 09:20:26;;;;;;;21.10;9.77;;;;;;;;;;4990380;28;20205;-64
2022/03/11 09:22:54;;;;;;;16.83;9.18;;;;;;;;;;4990533;28;20051;-64
2022/03/11 09:25:21;;;;;;;19.55;9.68;;;;;;;;;;4990512;28;20050;-63
2022/03/11 09:27:48;;;;;;;29.02;12.75;;;;;;;;;;4990515;28;20050;-65
2022/03/11 09:30:15;;;;;;;20.30;10.57;;;;;;;;;;4990369;28;20392;-65
2022/03/11 09:32:43;;;;;;;22.00;9.55;;;;;;;;;;4990158;28;20074;-64
2022/03/11 09:35:12;;;;;;;18.77;10.60;;;;;;;;;;4993092;28;20050;-63
2022/03/11 09:37:39;;;;;;;20.23;10.63;;;;;;;;;;4994362;28;20054;-64
2022/03/11 09:40:10;;;;;;;30.70;16.45;;;;;;;;;;4994047;28;20507;-65
2022/03/11 09:42:37;;;;;;;17.30;10.18;;;;;;;;;;4994027;28;20066;-64
2022/03/11 09:45:05;;;;;;;20.48;9.23;;;;;;;;;;4993761;28;20412;-65
2022/03/11 09:47:33;;;;;;;20.02;10.23;;;;;;;;;;4994402;28;20057;-64
2022/03/11 09:50:00;;;;;;;15.65;9.27;;;;;;;;;;4994242;28;20042;-65
2022/03/11 09:52:32;;;;;;;16.23;8.80;;;;;;;;;;4993959;28;20414;-64
2022/03/11 09:54:59;;;;;;;19.15;10.13;;;;;;;;;;4993961;28;20051;-64
2022/03/11 09:57:27;;;;;;;21.38;11.07;;;;;;;;;;4994100;28;20050;-65
2022/03/11 09:59:54;;;;;;;22.33;10.07;;;;;;;;;;4993899;28;20133;-63
2022/03/11 10:02:21;;;;;;;18.02;9.65;;;;;;;;;;4993831;28;20133;-65
2022/03/11 10:04:50;;;;;;;17.83;9.90;;;;;;;;;;4994019;28;20051;-66
2022/03/11 10:07:25;;;;;;;19.73;11.00;;;;;;;;;;4993794;28;20104;-64
2022/03/11 10:09:54;;;;;;;18.88;9.70;;;;;;;;;;4993560;28;20137;-67
2022/03/11 10:12:22;;;;;;;20.30;9.65;;;;;;;;;;4993775;28;20399;-64
2022/03/11 10:15:00;;;;;;;17.80;10.23;;;;;;;;;;4993531;28;20085;-64
2022/03/11 10:17:29;;;;;;;20.30;10.27;;;;;;;;;;4993701;28;20053;-63
2022/03/11 10:20:02;;;;;;;20.33;11.13;;;;;;;;;;4994862;28;20050;-67
2022/03/11 10:22:29;;;;;;;19.92;10.65;;;;;;;;;;4994028;28;20046;-68
2022/03/11 10:25:01;;;;;;;19.65;9.95;;;;;;;;;;4990771;28;20129;-70
2022/03/11 10:27:29;;;;;;;19.20;10.27;;;;;;;;;;4994090;28;20072;-64
2022/03/11 10:30:02;;;;;;;24.05;11.82;;;;;;;;;;4993020;28;20049;-64
2022/03/11 10:32:29;;;;;;;21.40;10.93;;;;;;;;;;4994086;28;20050;-64
2022/03/11 10:35:11;;;;;;;21.45;10.32;;;;;;;;;;4993523;28;20539;-64
2022/03/11 10:37:38;;;;;;;19.42;10.00;;;;;;;;;;4993354;28;20503;-63
2022/03/11 10:40:13;;;;;;;17.08;9.68;;;;;;;;;;4992877;28;20057;-64
2022/03/11 10:42:43;;;;;;;18.13;10.98;;;;;;;;;;4993311;28;20066;-65
2022/03/11 10:45:11;;;;;;;17.92;9.35;;;;;;;;;;4992820;28;20050;-64
2022/03/11 10:47:42;;;;;;;18.13;9.73;;;;;;;;;;4992245;28;20129;-64
2022/03/11 10:50:12;;;;;;;18.73;10.00;;;;;;;;;;4993266;28;20046;-65
2022/03/11 10:52:43;;;;;;;18.73;10.50;;;;;;;;;;4993130;28;20050;-65
2022/03/11 10:55:23;;;;;;;19.42;10.40;;;;;;;;;;4993326;28;20070;-64
2022/03/11 10:57:53;;;;;;;21.77;9.67;;;;;;;;;;4992860;28;20097;-64
2022/03/11 11:00:23;;;;;;;19.58;10.27;;;;;;;;;;4992339;28;20290;-65
2022/03/11 11:02:51;;;;;;;18.63;9.95;;;;;;;;;;4992712;28;20504;-65
2022/03/11 11:05:18;;;;;;;20.85;10.73;;;;;;;;;;4992847;28;20051;-64
2022/03/11 11:07:45;;;;;;;20.38;10.88;;;;;;;;;;4992652;28;20047;-64
2022/03/11 11:10:14;;;;;;;18.75;10.68;;;;;;;;;;4992459;28;20133;-65
2022/03/11 11:12:43;;;;;;;19.83;9.80;;;;;;;;;;4992892;28;20058;-64
2022/03/11 11:15:12;;;;;;;16.90;9.57;;;;;;;;;;4992737;28;20066;-65
2022/03/11 11:17:40;;;;;;;19.33;10.20;;;;;;;;;;4992536;28;20053;-64
2022/03/11 11:20:18;;;;;;;17.30;10.30;;;;;;;;;;4992379;28;20498;-65
2022/03/11 11:22:45;;;;;;;22.90;10.00;;;;;;;;;;4992349;28;20251;-66
2022/03/11 11:25:15;;;;;;;21.58;9.88;;;;;;;;;;4992139;28;20043;-66
2022/03/11 11:27:44;;;;;;;20.55;10.73;;;;;;;;;;4992096;28;20077;-70
2022/03/11 11:30:12;;;;;;;20.88;10.63;;;;;;;;;;4992213;28;20070;-65
2022/03/11 11:32:42;;;;;;;19.33;10.50;;;;;;;;;;4992008;28;20050;-66
2022/03/11 11:35:26;;;;;;;21.08;10.82;;;;;;;;;;4992043;28;20081;-64
2022/03/11 11:37:54;;;;;;;21.20;9.73;;;;;;;;;;4992031;28;20049;-67
2022/03/11 11:40:23;;;;;;;18.42;10.45;;;;;;;;;;4992101;28;20072;-66
2022/03/11 11:43:26;;;;;;;20.35;10.95;;;;;;;;;;4992393;28;20399;-66
2022/03/11 11:45:55;;;;;;;23.80;11.38;;;;;;;;;;4991893;28;20042;-66
2022/03/11 11:49:15;;;;;;;16.30;10.10;;;;;;;;;;4991983;28;20057;-68
2022/03/11 11:52:02;;;;;;;19.13;10.75;;;;;;;;;;4950235;29;20210;-65
2022/03/11 11:54:43;;;;;;;20.23;11.32;;;;;;;;;;4988715;28;20043;-66
2022/03/11 11:57:19;;;;;;;20.38;11.45;;;;;;;;;;4991694;28;20415;-64
2022/03/11 11:59:47;;;;;;;18.30;11.32;;;;;;;;;;4991662;28;20526;-65
2022/03/11 12:02:35;;;;;;;21.30;11.85;;;;;;;;;;4991610;28;20053;-65
2022/03/11 12:05:52;;;;;;;21.63;11.93;;;;;;;;;;4991578;28;20056;-65
2022/03/11 12:08:47;;;;;;;21.45;11.48;;;;;;;;;;4991859;28;20165;-65
2022/03/11 12:11:37;;;;;;;20.55;12.27;;;;;;;;;;4982810;28;20051;-64
2022/03/11 12:14:04;;;;;;;22.50;11.68;;;;;;;;;;4991518;28;20129;-64
2022/03/11 12:17:06;;;;;;;19.92;11.38;;;;;;;;;;4991341;28;20050;-65
2022/03/11 12:19:38;;;;;;;22.83;12.60;;;;;;;;;;4991430;28;20488;-64
2022/03/11 12:22:24;;;;;;;21.95;12.10;;;;;;;;;;4991650;28;20050;-64
2022/03/11 12:25:06;;;;;;;24.63;12.32;;;;;;;;;;4991625;28;20054;-64
2022/03/11 12:28:13;;;;;;;20.60;12.18;;;;;;;;;;4991523;28;20046;-63
2022/03/11 12:30:42;;;;;;;20.55;10.82;;;;;;;;;;4991710;28;20466;-64
2022/03/11 12:33:12;;;;;;;20.23;11.52;;;;;;;;;;4991861;28;20050;-64
2022/03/11 12:35:40;;;;;;;21.73;12.13;;;;;;;;;;4991792;28;20491;-64
2022/03/11 12:38:12;;;;;;;21.15;12.02;;;;;;;;;;4991754;28;20054;-65
2022/03/11 12:40:39;;;;;;;20.40;10.77;;;;;;;;;;4991479;28;20046;-64
2022/03/11 12:43:09;;;;;;;20.35;11.57;;;;;;;;;;4991107;28;20050;-64
2022/03/11 12:45:38;;;;;;;21.98;11.77;;;;;;;;;;4991068;28;20061;-63
2022/03/11 12:48:06;;;;;;;20.40;11.10;;;;;;;;;;4991613;28;20077;-65
2022/03/11 12:50:36;;;;;;;34.97;19.90;;;;;;;;;;4991323;28;20178;-64
2022/03/11 12:53:06;;;;;;;23.63;12.00;;;;;;;;;;4991338;28;20424;-65
2022/03/11 12:55:35;;;;;;;24.98;13.23;;;;;;;;;;4991853;28;20138;-64
2022/03/11 12:58:06;;;;;;;26.63;13.05;;;;;;;;;;4991171;28;20050;-64
2022/03/11 13:00:36;;;;;;;21.60;12.27;;;;;;;;;;4991367;28;20304;-64
2022/03/11 13:03:07;;;;;;;17.75;10.85;;;;;;;;;;4991067;28;20100;-64
2022/03/11 13:05:36;;;;;;;22.80;11.55;;;;;;;;;;4991412;28;20488;-64
2022/03/11 13:08:06;;;;;;;20.83;11.52;;;;;;;;;;4990993;28;20049;-64
2022/03/11 13:10:34;;;;;;;22.67;12.27;;;;;;;;;;4990422;28;20048;-64
2022/03/11 13:13:02;;;;;;;24.10;13.80;;;;;;;;;;4991050;28;20052;-64
2022/03/11 13:15:31;;;;;;;22.10;12.32;;;;;;;;;;4990733;28;20105;-63
2022/03/11 13:18:04;;;;;;;21.75;12.38;;;;;;;;;;4990777;28;20043;-64
2022/03/11 13:20:44;;;;;;;19.70;12.00;;;;;;;;;;4990841;28;20043;-64
2022/03/11 13:23:20;;;;;;;19.40;13.02;;;;;;;;;;4991121;28;20523;-63
2022/03/11 13:25:49;;;;;;;21.65;12.77;;;;;;;;;;4991136;28;20054;-63
2022/03/11 13:28:28;;;;;;;25.37;12.63;;;;;;;;;;4990774;28;20062;-64
2022/03/11 13:30:59;;;;;;;22.80;14.07;;;;;;;;;;4991153;28;20762;-64
2022/03/11 13:33:29;;;;;;;18.48;12.38;;;;;;;;;;4990852;28;20050;-65
2022/03/11 13:36:15;;;;;;;20.00;12.10;;;;;;;;;;4990832;28;20055;-65
2022/03/11 13:38:46;;;;;;;19.40;12.57;;;;;;;;;;4990408;28;20120;-65
2022/03/11 13:41:14;;;;;;;;;;;;;;;;;;4991163;28;20420;-64
2022/03/11 13:43:41;;;;;;;19.10;12.02;;;;;;;;;;4990429;28;19921;-65
2022/03/11 13:46:08;;;;;;;18.13;12.75;;;;;;;;;;4990258;28;20077;-63
2022/03/11 13:48:36;;;;;;;19.73;12.25;;;;;;;;;;4990294;28;20113;-65
2022/03/11 13:51:07;;;;;;;19.77;11.95;;;;;;;;;;4990431;28;20514;-63
2022/03/11 13:53:36;;;;;;;19.50;12.30;;;;;;;;;;4990718;28;20054;-65
2022/03/11 13:56:15;;;;;;;19.85;12.68;;;;;;;;;;4990626;28;20074;-64
2022/03/11 13:58:42;;;;;;;21.27;12.60;;;;;;;;;;4990614;28;20052;-66
2022/03/11 14:01:10;;;;;;;22.27;13.13;;;;;;;;;;4990509;28;20042;-64
2022/03/11 14:03:45;;;;;;;23.20;14.52;;;;;;;;;;4990252;28;20495;-64
2022/03/11 14:06:12;;;;;;;21.33;13.25;;;;;;;;;;4990322;28;20397;-65
2022/03/11 14:08:41;;;;;;;21.40;12.27;;;;;;;;;;4990268;28;20053;-64
2022/03/11 14:11:08;;;;;;;23.10;13.70;;;;;;;;;;4990647;28;20069;-65
2022/03/11 14:13:36;;;;;;;21.23;13.50;;;;;;;;;;4990323;28;20100;-64
2022/03/11 14:16:09;;;;;;;19.58;12.88;;;;;;;;;;4990032;28;20051;-63
2022/03/11 14:18:36;;;;;;;22.35;13.60;;;;;;;;;;4990291;28;20062;-64
2022/03/11 14:21:05;;;;;;;20.05;11.85;;;;;;;;;;4992254;28;20072;-64
2022/03/11 14:23:32;;;;;;;20.20;12.38;;;;;;;;;;4993756;28;20046;-65
2022/03/11 14:26:00;;;;;;;19.08;12.13;;;;;;;;;;4993473;28;20141;-65
2022/03/11 14:28:27;;;;;;;26.60;16.63;;;;;;;;;;4993792;28;20503;-65
2022/03/11 14:30:54;;;;;;;20.83;12.00;;;;;;;;;;4993743;28;20077;-65
2022/03/11 14:33:21;;;;;;;19.20;12.32;;;;;;;;;;4993084;28;20050;-65
2022/03/11 14:35:49;;;;;;;19.75;13.05;;;;;;;;;;4993318;28;20057;-64
2022/03/11 14:38:17;;;;;;;22.30;13.43;;;;;;;;;;4993636;28;20085;-64